Time;durP1;ratioP1;P1;durP2;ratioP2;P2;SDS_P1;SDS_P2;PMS_P1;PMS_P2;Temp;Humidity;BMP_temperature;BMP_pressure;BME280_temperature;BME280_humidity;BME280_pressure;Samples;Min_cycle;Max_cycle;Signal;HPM_P1;HPM_P2
2021/01/04 00:01:51;;;;;;;26.48;13.93;;;;;;;2.21;83.47;96417.09;1759379;81;21449;-90
2021/01/04 00:05:00;;;;;;;24.75;14.28;;;;;;;2.25;83.16;96414.30;1759428;81;21098;-89
2021/01/04 00:07:41;;;;;;;27.50;15.48;;;;;;;2.27;83.32;96405.22;1759497;81;21097;-90
2021/01/04 00:10:46;;;;;;;29.07;15.48;;;;;;;2.22;83.02;96402.48;1742673;80;21571;-89
2021/01/04 00:13:32;;;;;;;26.57;13.20;;;;;;;2.16;83.36;96398.19;1758639;81;21176;-89
2021/01/04 00:16:17;;;;;;;25.70;14.38;;;;;;;2.10;83.39;96401.70;1759388;81;21152;-90
2021/01/04 00:19:11;;;;;;;22.73;14.10;;;;;;;2.14;83.38;96391.59;1875445;76;23081;-88
2021/01/04 00:22:11;;;;;;;24.12;14.75;;;;;;;2.10;83.28;96391.23;1770308;81;21120;-89
2021/01/04 00:24:49;;;;;;;23.45;13.03;;;;;;;2.06;83.14;96398.75;1770209;81;21127;-89
2021/01/04 00:27:46;;;;;;;25.92;14.60;;;;;;;2.03;83.18;96395.81;1770312;81;21111;-89
2021/01/04 00:30:24;;;;;;;25.17;15.40;;;;;;;1.97;83.27;96401.45;1770176;81;21116;-89
2021/01/04 00:33:00;;;;;;;21.93;13.20;;;;;;;1.94;83.26;96397.97;1770448;79;21131;-89
2021/01/04 00:35:29;;;;;;;24.20;12.88;;;;;;;1.98;83.28;96398.33;1770802;79;21648;-89
2021/01/04 00:38:36;;;;;;;58.87;23.98;;;;;;;1.98;83.39;96401.73;1770310;81;21522;-89
2021/01/04 00:41:14;;;;;;;23.65;13.32;;;;;;;1.97;83.22;96403.25;1771214;79;21300;-90
2021/01/04 00:43:49;;;;;;;20.92;12.75;;;;;;;1.90;83.11;96408.61;1770267;81;21095;-90
2021/01/04 00:46:22;;;;;;;20.25;11.28;;;;;;;1.86;83.23;96417.14;1770587;81;21265;-89
2021/01/04 00:49:23;;;;;;;21.17;12.05;;;;;;;1.83;83.71;96414.95;1770077;81;21148;-90
2021/01/04 00:52:10;;;;;;;21.93;12.40;;;;;;;1.82;83.93;96421.20;1787347;80;21142;-90
2021/01/04 00:54:43;;;;;;;18.55;11.53;;;;;;;1.86;84.78;96419.75;1786061;80;21143;-89
2021/01/04 00:57:24;;;;;;;17.67;10.70;;;;;;;1.91;84.74;96419.34;1786903;80;21175;-89
2021/01/04 01:00:03;;;;;;;16.35;9.38;;;;;;;1.95;84.82;96429.62;1787206;80;21143;-89
2021/01/04 01:02:53;;;;;;;15.68;9.28;;;;;;;2.06;84.84;96422.80;1785698;80;21142;-89
2021/01/04 01:05:48;;;;;;;14.73;9.70;;;;;;;2.16;84.61;96430.88;1787291;80;21119;-89
2021/01/04 01:08:26;;;;;;;17.12;10.75;;;;;;;2.22;84.35;96426.02;1787218;80;21155;-90
2021/01/04 01:10:58;;;;;;;19.45;11.48;;;;;;;2.24;84.20;96425.27;1786777;80;21158;-89
2021/01/04 01:13:52;;;;;;;20.82;11.53;;;;;;;2.26;84.10;96423.25;1787184;80;21127;-89
2021/01/04 01:16:59;;;;;;;20.57;12.85;;;;;;;2.31;84.13;96419.42;1776759;80;21139;-90
2021/01/04 01:19:46;;;;;;;20.72;12.40;;;;;;;2.37;84.01;96423.72;1783867;79;21115;-89
2021/01/04 01:22:18;;;;;;;20.77;11.73;;;;;;;2.38;83.83;96418.77;1770471;81;21091;-89
2021/01/04 01:24:45;;;;;;;23.10;12.30;;;;;;;2.40;83.71;96417.77;1769981;81;21140;-89
2021/01/04 01:27:49;;;;;;;19.40;11.12;;;;;;;2.41;83.68;96421.98;1770151;81;21131;-89
2021/01/04 01:30:22;;;;;;;20.10;12.47;;;;;;;2.40;83.79;96417.26;1769750;81;21138;-90
2021/01/04 01:33:14;;;;;;;19.95;11.88;;;;;;;2.47;84.00;96414.50;1769709;81;21135;-89
2021/01/04 01:35:58;;;;;;;22.40;12.33;;;;;;;2.50;83.92;96412.72;1769699;81;21162;-90
2021/01/04 01:38:34;;;;;;;20.95;11.40;;;;;;;2.52;83.78;96409.36;1769722;81;21135;-89
2021/01/04 01:41:27;;;;;;;19.77;11.55;;;;;;;2.52;83.68;96406.23;1770565;79;21115;-89
2021/01/04 01:44:17;;;;;;;18.52;11.95;;;;;;;2.53;83.60;96396.55;1769822;81;21163;-89
2021/01/04 01:47:04;;;;;;;19.10;11.97;;;;;;;2.53;83.48;96401.78;1769794;81;21104;-89
2021/01/04 01:49:57;;;;;;;22.37;12.47;;;;;;;2.50;83.35;96398.33;1770205;79;21507;-89
2021/01/04 01:52:53;;;;;;;19.87;11.93;;;;;;;2.43;83.27;96390.63;1769207;81;21483;-89
2021/01/04 01:55:50;;;;;;;20.62;11.75;;;;;;;2.44;83.33;96384.37;1877979;76;22839;-88
2021/01/04 01:58:54;;;;;;;19.73;10.25;;;;;;;2.36;83.27;96386.81;1825186;77;21487;-89
2021/01/04 02:01:53;;;;;;;17.87;9.58;;;;;;;2.29;83.09;96382.25;1852692;77;21132;-89
2021/01/04 02:04:34;;;;;;;19.23;8.93;;;;;;;2.21;82.99;96383.89;1852692;77;21135;-89
2021/01/04 02:07:35;;;;;;;15.70;8.98;;;;;;;2.17;83.09;96393.23;1852696;77;21084;-90
2021/01/04 02:10:08;;;;;;;;;;;;;;;2.16;83.09;96395.57;1855406;77;21242;-89
2021/01/04 02:13:11;;;;;;;17.73;10.15;;;;;;;2.13;82.98;96400.47;1852759;77;20333;-90
2021/01/04 02:15:55;;;;;;;21.50;12.30;;;;;;;2.07;82.87;96400.34;1801785;80;21440;-90
2021/01/04 02:18:53;;;;;;;22.17;11.70;;;;;;;2.04;83.00;96405.24;1793195;80;21503;-89
2021/01/04 02:22:00;;;;;;;26.35;12.65;;;;;;;1.98;82.93;96405.66;1761482;81;21135;-89
2021/01/04 02:24:29;;;;;;;20.55;12.65;;;;;;;1.89;83.02;96407.02;1761934;81;21124;-89
2021/01/04 02:27:10;;;;;;;23.55;12.95;;;;;;;1.83;83.30;96411.86;1762182;81;21151;-89
2021/01/04 02:29:37;;;;;;;20.17;11.50;;;;;;;1.85;83.49;96414.24;1761755;81;21331;-89
2021/01/04 02:32:09;;;;;;;22.93;11.97;;;;;;;1.86;83.57;96416.63;1762125;81;21273;-89
2021/01/04 02:34:53;;;;;;;20.15;11.95;;;;;;;1.85;83.39;96414.24;1761774;81;21285;-90
2021/01/04 02:37:23;;;;;;;22.25;11.95;;;;;;;1.81;83.37;96407.34;1762091;81;21285;-89
2021/01/04 02:40:01;;;;;;;20.80;11.83;;;;;;;1.83;83.62;96409.73;1761934;81;21357;-89
2021/01/04 02:42:34;;;;;;;16.55;9.90;;;;;;;1.88;83.82;96411.96;1761907;81;21262;-89
2021/01/04 02:45:21;;;;;;;16.37;9.23;;;;;;;1.89;83.85;96414.06;1761156;81;21159;-89
2021/01/04 02:48:33;;;;;;;17.67;10.18;;;;;;;1.90;83.83;96409.12;1761543;81;21265;-89
2021/01/04 02:51:14;;;;;;;15.95;8.63;;;;;;;1.74;83.66;96409.29;1789357;80;21159;-89
2021/01/04 02:54:02;;;;;;;16.45;8.55;;;;;;;1.63;83.87;96404.84;1792583;80;21257;-89
2021/01/04 02:57:05;;;;;;;16.80;9.33;;;;;;;1.64;84.18;96406.44;1793615;80;21115;-89
2021/01/04 02:59:51;;;;;;;19.12;10.43;;;;;;;1.64;84.68;96407.23;1765976;80;21103;-90
2021/01/04 03:02:35;;;;;;;18.05;10.40;;;;;;;1.66;84.98;96399.95;1794008;80;21114;-89
2021/01/04 03:05:06;;;;;;;19.12;10.43;;;;;;;1.70;85.04;96407.65;1780347;81;21126;-89
2021/01/04 03:07:34;;;;;;;13.90;9.20;;;;;;;1.73;85.01;96404.58;1792954;80;21146;-89
2021/01/04 03:10:15;;;;;;;16.50;9.78;;;;;;;1.76;84.90;96409.34;1779683;81;21167;-90
2021/01/04 03:12:44;;;;;;;19.52;10.85;;;;;;;1.76;84.83;96403.32;1793440;80;21114;-90
2021/01/04 03:16:00;;;;;;;17.12;9.45;;;;;;;1.76;84.82;96397.58;1779744;81;21150;-89
2021/01/04 03:18:45;;;;;;;14.30;8.53;;;;;;;1.78;84.82;96400.76;1793333;80;21498;-89
2021/01/04 03:21:13;;;;;;;21.02;11.50;;;;;;;1.69;84.48;96394.78;1761063;80;21131;-89
2021/01/04 03:23:50;;;;;;;17.57;9.93;;;;;;;1.59;84.76;96388.04;1759893;81;21512;-89
2021/01/04 03:26:22;;;;;;;16.65;9.98;;;;;;;1.59;85.15;96388.04;1760005;81;21127;-89
2021/01/04 03:28:49;;;;;;;17.90;10.90;;;;;;;1.57;85.40;96397.92;1737951;82;21143;-89
2021/01/04 03:31:16;;;;;;;16.97;9.63;;;;;;;1.61;85.36;96395.14;1751724;82;21476;-89
2021/01/04 03:33:44;;;;;;;16.50;9.78;;;;;;;1.64;85.29;96394.17;1738146;82;21149;-89
2021/01/04 03:36:13;;;;;;;15.68;10.03;;;;;;;1.69;85.25;96389.08;1737890;82;21154;-89
2021/01/04 03:38:41;;;;;;;17.45;9.63;;;;;;;1.69;85.06;96392.99;1751693;82;21573;-89
2021/01/04 03:41:09;;;;;;;23.12;13.10;;;;;;;1.70;85.04;96389.36;1737909;82;21115;-89
2021/01/04 03:43:36;;;;;;;19.98;11.73;;;;;;;1.72;84.98;96393.05;1751703;82;21626;-90
2021/01/04 03:46:04;;;;;;;19.25;11.50;;;;;;;1.74;85.00;96394.41;1751621;82;21170;-89
2021/01/04 03:48:31;;;;;;;16.37;10.08;;;;;;;1.78;84.98;96400.76;1751707;82;21646;-90
2021/01/04 03:50:58;;;;;;;16.45;9.73;;;;;;;1.81;84.90;96405.24;1779797;80;21523;-89
2021/01/04 03:53:25;;;;;;;16.07;9.50;;;;;;;1.77;84.82;96407.02;1784046;80;21143;-90
2021/01/04 03:55:52;;;;;;;16.80;9.63;;;;;;;1.76;84.86;96402.81;1784054;80;21144;-89
2021/01/04 03:58:19;;;;;;;15.72;9.25;;;;;;;1.79;84.92;96404.16;1784334;80;21545;-89
2021/01/04 04:00:46;;;;;;;14.58;8.23;;;;;;;1.83;84.92;96407.94;1784063;80;21167;-89
2021/01/04 04:03:13;;;;;;;15.95;8.90;;;;;;;1.85;84.94;96403.78;1784154;80;21131;-90
2021/01/04 04:05:40;;;;;;;13.60;8.25;;;;;;;1.84;84.93;96397.77;1784116;80;21116;-89
2021/01/04 04:08:07;;;;;;;13.45;8.70;;;;;;;1.84;84.92;96398.28;1784264;80;21148;-90
2021/01/04 04:10:34;;;;;;;14.58;8.23;;;;;;;1.86;84.97;96395.72;1784090;80;21131;-89
2021/01/04 04:13:03;;;;;;;16.15;8.48;;;;;;;1.89;84.96;96388.72;1784228;80;21139;-90
2021/01/04 04:15:30;;;;;;;14.10;8.50;;;;;;;1.91;84.94;96391.09;1784109;80;21120;-89
2021/01/04 04:17:57;;;;;;;15.00;8.83;;;;;;;1.89;84.88;96390.54;1783988;80;21135;-89
2021/01/04 04:20:25;;;;;;;14.75;9.28;;;;;;;1.83;84.71;96388.81;1784067;80;21486;-89
2021/01/04 04:22:55;;;;;;;15.88;9.80;;;;;;;1.78;84.67;96387.69;1784093;80;21128;-89
2021/01/04 04:25:25;;;;;;;15.93;10.32;;;;;;;1.76;84.69;96388.44;1784425;80;21432;-89
2021/01/04 04:27:54;;;;;;;15.58;9.75;;;;;;;1.75;84.66;96385.54;1792892;80;21158;-90
2021/01/04 04:30:24;;;;;;;17.48;9.90;;;;;;;1.72;84.58;96386.00;1792720;80;21254;-89
2021/01/04 04:33:00;;;;;;;16.35;10.55;;;;;;;1.63;84.45;96382.13;1792685;80;21451;-90
2021/01/04 04:35:29;;;;;;;17.27;9.68;;;;;;;1.56;84.46;96378.05;1766109;80;21527;-89
2021/01/04 04:37:58;;;;;;;18.60;10.32;;;;;;;1.48;84.36;96384.39;1792634;80;21135;-89
2021/01/04 04:40:30;;;;;;;15.63;10.38;;;;;;;1.43;84.45;96387.69;1792710;80;21116;-90
2021/01/04 04:43:05;;;;;;;18.10;9.48;;;;;;;1.36;84.37;96386.19;1792768;80;21135;-89
2021/01/04 04:45:33;;;;;;;16.07;10.18;;;;;;;1.19;84.35;96392.06;1792723;80;21123;-89
2021/01/04 04:48:25;;;;;;;17.25;9.65;;;;;;;1.10;84.55;96391.30;1792620;80;21418;-89
2021/01/04 04:51:06;;;;;;;15.75;8.50;;;;;;;1.09;84.66;96391.02;1792396;80;21269;-89
2021/01/04 04:54:12;;;;;;;17.57;9.05;;;;;;;1.05;84.67;96387.27;1792398;80;21127;-89
2021/01/04 04:56:56;;;;;;;16.95;10.93;;;;;;;0.99;84.51;96387.66;1796208;80;21127;-89
2021/01/04 05:00:01;;;;;;;18.52;11.88;;;;;;;0.88;84.57;96397.55;1795171;80;21507;-89
2021/01/04 05:02:58;;;;;;;18.30;11.43;;;;;;;0.75;84.50;96406.86;1796182;79;21118;-89
2021/01/04 05:05:38;;;;;;;18.50;11.70;;;;;;;0.65;84.89;96413.89;1796000;80;21111;-89
2021/01/04 05:08:20;;;;;;;16.17;10.38;;;;;;;0.67;85.41;96408.45;1791715;80;21104;-89
2021/01/04 05:11:01;;;;;;;18.70;9.75;;;;;;;0.66;85.50;96402.95;1878106;76;23019;-88
2021/01/04 05:13:36;;;;;;;17.60;9.65;;;;;;;0.59;85.88;96412.97;1819406;79;21096;-88
2021/01/04 05:16:26;;;;;;;16.05;9.63;;;;;;;0.71;86.31;96414.33;1819519;79;21088;-87
2021/01/04 05:19:24;;;;;;;14.83;8.90;;;;;;;0.80;86.28;96416.91;1832145;77;21136;-89
2021/01/04 05:22:37;;;;;;;18.85;10.60;;;;;;;0.83;86.52;96410.44;1819452;79;21467;-89
2021/01/04 05:25:19;;;;;;;19.27;10.18;;;;;;;0.86;86.73;96415.25;1819367;79;21118;-90
2021/01/04 05:28:23;;;;;;;16.48;7.40;;;;;;;0.88;86.66;96400.95;1818770;79;21130;-89
2021/01/04 05:31:15;;;;;;;11.10;7.83;;;;;;;0.96;87.17;96393.30;1770269;81;21127;-89
2021/01/04 05:34:10;;;;;;;13.58;8.18;;;;;;;1.11;87.56;96396.30;1761790;81;21269;-89
2021/01/04 05:37:18;;;;;;;13.78;8.73;;;;;;;1.17;87.33;96395.42;1761929;81;21167;-89
2021/01/04 05:40:02;;;;;;;15.95;10.03;;;;;;;1.14;87.12;96389.34;1761877;81;21653;-89
2021/01/04 05:43:01;;;;;;;13.40;9.00;;;;;;;1.11;86.83;96394.98;1761850;81;21262;-89
2021/01/04 05:45:36;;;;;;;13.18;9.00;;;;;;;1.04;86.42;96389.08;1761563;81;21131;-89
2021/01/04 05:48:14;;;;;;;17.32;9.68;;;;;;;0.93;86.11;96382.52;1761767;81;21658;-89
2021/01/04 05:50:49;;;;;;;19.57;11.15;;;;;;;0.82;85.93;96379.64;1785440;80;21140;-90
2021/01/04 05:53:17;;;;;;;22.32;11.88;;;;;;;0.66;85.84;96375.05;1791816;80;21148;-89
2021/01/04 05:55:44;;;;;;;17.07;11.00;;;;;;;0.51;86.06;96372.84;1793236;79;21147;-89
2021/01/04 05:58:21;;;;;;;18.62;11.55;;;;;;;0.47;86.21;96379.52;1793034;79;21163;-89
2021/01/04 06:00:48;;;;;;;19.17;11.03;;;;;;;0.45;86.38;96382.06;1793137;79;21116;-88
2021/01/04 06:03:19;;;;;;;14.73;8.98;;;;;;;0.47;86.48;96379.52;1793089;80;21147;-88
2021/01/04 06:05:48;;;;;;;17.00;8.88;;;;;;;0.49;86.40;96387.12;1793164;79;21148;-89
2021/01/04 06:08:26;;;;;;;21.33;10.35;;;;;;;0.45;86.26;96384.16;1793012;80;21107;-88
2021/01/04 06:11:12;;;;;;;15.25;9.73;;;;;;;0.44;86.28;96389.09;1802652;79;21127;-88
2021/01/04 06:13:43;;;;;;;18.90;11.68;;;;;;;0.41;86.33;96395.22;1771607;81;21143;-88
2021/01/04 06:16:15;;;;;;;21.10;12.10;;;;;;;0.33;86.15;96405.46;1804657;79;21491;-89
2021/01/04 06:18:54;;;;;;;19.67;10.63;;;;;;;0.29;86.17;96405.61;1771555;80;21535;-89
2021/01/04 06:21:45;;;;;;;18.75;10.65;;;;;;;0.27;86.19;96407.62;1772718;81;21135;-88
2021/01/04 06:24:35;;;;;;;14.95;8.90;;;;;;;0.29;86.25;96413.44;1742078;82;21443;-89
2021/01/04 06:27:16;;;;;;;13.40;8.00;;;;;;;0.23;86.23;96398.64;1772534;81;21474;-89
2021/01/04 06:29:50;;;;;;;17.82;8.70;;;;;;;0.21;86.25;96404.59;1740683;82;21196;-88
2021/01/04 06:32:33;;;;;;;16.25;8.80;;;;;;;0.21;86.31;96403.28;1772371;81;21171;-88
2021/01/04 06:35:06;;;;;;;19.87;8.90;;;;;;;0.25;86.51;96416.17;1742332;82;21138;-88
2021/01/04 06:37:34;;;;;;;15.95;9.13;;;;;;;0.06;85.99;96412.77;1771361;81;21166;-88
2021/01/04 06:40:29;;;;;;;14.18;7.25;;;;;;;-0.25;86.02;96414.98;1742155;82;21154;-88
2021/01/04 06:42:56;;;;;;;8.98;5.83;;;;;;;-0.30;86.79;96418.71;1768566;81;21553;-88
2021/01/04 06:45:54;;;;;;;13.80;5.97;;;;;;;-0.38;87.26;96417.70;1742099;82;21147;-88
2021/01/04 06:48:35;;;;;;;8.83;5.00;;;;;;;-0.40;87.97;96421.82;1772379;81;21147;-88
2021/01/04 06:51:14;;;;;;;9.78;5.67;;;;;;;-0.21;88.59;96417.95;1739555;81;21102;-88
2021/01/04 06:54:09;;;;;;;34.98;22.10;;;;;;;-0.12;88.19;96420.07;1750024;82;21143;-88
2021/01/04 06:57:07;;;;;;;29.95;16.15;;;;;;;-0.18;87.59;96428.73;1750105;82;21159;-89
2021/01/04 06:59:58;;;;;;;26.95;15.28;;;;;;;-0.31;87.57;96432.75;1749962;82;21154;-89
2021/01/04 07:03:04;;;;;;;16.55;10.23;;;;;;;-0.28;87.81;96427.13;1750182;82;21159;-88
2021/01/04 07:05:42;;;;;;;21.90;14.10;;;;;;;-0.13;88.32;96430.20;1750040;82;21147;-89
2021/01/04 07:08:48;;;;;;;17.15;10.98;;;;;;;0.10;88.52;96428.77;1748838;82;21245;-89
2021/01/04 07:11:37;;;;;;;16.87;9.30;;;;;;;0.26;88.83;96428.19;1749962;82;21155;-88
2021/01/04 07:14:27;;;;;;;15.88;9.05;;;;;;;0.39;89.04;96422.83;1738601;82;21269;-89
2021/01/04 07:17:18;;;;;;;19.30;11.40;;;;;;;0.59;89.14;96418.19;1738936;82;21260;-89
2021/01/04 07:20:08;;;;;;;17.85;11.45;;;;;;;0.82;88.90;96420.59;1763468;80;21144;-88
2021/01/04 07:23:08;;;;;;;23.05;14.25;;;;;;;0.78;88.42;96427.28;1787003;80;21129;-89
2021/01/04 07:25:53;;;;;;;17.55;10.70;;;;;;;0.85;88.25;96434.53;1786997;80;21116;-89
2021/01/04 07:29:03;;;;;;;23.85;14.45;;;;;;;0.84;87.84;96431.61;1786898;80;21132;-89
2021/01/04 07:31:40;;;;;;;18.10;12.37;;;;;;;1.01;87.86;96437.03;1742706;80;21499;-88
2021/01/04 07:34:26;;;;;;;30.23;19.27;;;;;;;1.41;87.82;96434.65;1786778;80;21104;-89
2021/01/04 07:37:32;;;;;;;17.73;11.85;;;;;;;1.67;87.57;96439.44;1787127;80;21104;-88
2021/01/04 07:40:39;;;;;;;16.73;10.58;;;;;;;2.00;87.10;96435.49;1803810;79;21277;-88
2021/01/04 07:44:02;;;;;;;21.05;10.68;;;;;;;2.01;86.41;96443.62;1772526;81;21151;-88
2021/01/04 07:46:37;;;;;;;18.70;11.80;;;;;;;2.12;86.25;96458.52;1772631;81;21130;-88
2021/01/04 07:49:43;;;;;;;24.40;14.03;;;;;;;2.26;85.95;96453.33;1772342;80;21151;-89
2021/01/04 07:52:48;;;;;;;21.87;12.33;;;;;;;2.53;85.87;96452.30;1772845;81;21135;-88
2021/01/04 07:55:42;;;;;;;17.52;11.10;;;;;;;2.88;85.60;96460.08;1772517;80;21484;-88
2021/01/04 07:58:58;;;;;;;17.65;10.85;;;;;;;2.88;84.44;96457.97;1771722;80;21174;-88
2021/01/04 08:02:10;;;;;;;13.78;8.80;;;;;;;2.59;84.21;96447.47;1772658;80;21522;-89
2021/01/04 08:05:34;;;;;;;14.00;9.38;;;;;;;2.74;84.73;96439.12;1772331;80;21167;-89
2021/01/04 08:08:19;;;;;;;21.33;13.25;;;;;;;3.45;85.48;96440.40;1772937;80;21135;-89
2021/01/04 08:11:26;;;;;;;18.87;12.28;;;;;;;4.22;85.04;96443.66;1770807;80;21112;-89
2021/01/04 08:14:52;;;;;;;14.93;9.85;;;;;;;4.41;83.37;96449.44;1769422;81;21648;-90
2021/01/04 08:17:48;;;;;;;12.73;8.78;;;;;;;4.41;82.92;96455.48;1769586;80;21254;-89
2021/01/04 08:20:16;;;;;;;13.32;7.80;;;;;;;4.25;81.80;96456.31;1769489;81;21143;-88
2021/01/04 08:23:15;;;;;;;14.40;8.68;;;;;;;4.46;82.39;96446.34;1769649;81;21147;-89
2021/01/04 08:26:20;;;;;;;16.27;9.63;;;;;;;4.82;82.68;96438.92;1768759;81;21523;-90
2021/01/04 08:29:08;;;;;;;13.13;8.13;;;;;;;4.92;82.04;96442.16;1769509;81;21502;-89
2021/01/04 08:32:01;;;;;;;14.98;9.18;;;;;;;5.02;81.42;96449.64;1769724;81;21136;-89
2021/01/04 08:34:40;;;;;;;14.18;8.23;;;;;;;5.01;81.32;96449.89;1769492;81;21120;-89
2021/01/04 08:37:07;;;;;;;14.47;8.70;;;;;;;5.09;81.03;96452.61;1769762;81;21146;-89
2021/01/04 08:39:45;;;;;;;19.35;9.28;;;;;;;5.07;80.53;96456.80;1769550;80;21116;-89
2021/01/04 08:42:29;;;;;;;21.27;10.18;;;;;;;5.11;80.43;96451.32;1769639;80;21146;-90
2021/01/04 08:45:10;;;;;;;13.80;9.30;;;;;;;5.22;80.51;96449.59;1769548;81;21123;-89
2021/01/04 08:47:43;;;;;;;16.27;10.00;;;;;;;5.33;80.22;96451.26;1769591;81;21250;-90
2021/01/04 08:50:27;;;;;;;15.70;8.85;;;;;;;5.33;79.57;96447.31;1768790;81;21172;-90
2021/01/04 08:52:59;;;;;;;14.65;10.20;;;;;;;5.17;78.49;96452.16;1761845;81;21167;-90
2021/01/04 08:55:31;;;;;;;17.48;9.90;;;;;;;4.83;78.62;96439.71;1768386;81;21131;-90
2021/01/04 08:58:22;;;;;;;17.62;9.85;;;;;;;4.89;79.33;96433.47;1769589;81;21498;-89
2021/01/04 09:01:19;;;;;;;;;;;;;;;4.81;78.78;96428.14;1772246;81;21123;-90
2021/01/04 09:03:47;;;;;;;19.15;10.98;;;;;;;4.66;78.23;96429.28;1769828;81;20107;-90
2021/01/04 09:06:29;;;;;;;19.60;11.45;;;;;;;4.47;78.36;96433.50;1770123;81;21125;-90
2021/01/04 09:09:07;;;;;;;19.27;11.88;;;;;;;4.44;78.84;96433.99;1769804;81;21510;-90
2021/01/04 09:11:51;;;;;;;17.45;11.63;;;;;;;4.55;79.13;96430.19;1754358;82;21166;-89
2021/01/04 09:14:24;;;;;;;18.52;11.00;;;;;;;4.66;78.92;96422.20;1755412;82;21127;-89
2021/01/04 09:16:51;;;;;;;17.37;11.20;;;;;;;4.70;78.73;96419.34;1755284;82;21127;-90
2021/01/04 09:19:29;;;;;;;17.82;11.20;;;;;;;4.73;78.53;96418.06;1753864;80;21190;-90
2021/01/04 09:22:13;;;;;;;20.85;12.30;;;;;;;4.91;78.54;96419.56;1766071;81;21157;-90
2021/01/04 09:24:43;;;;;;;23.20;13.03;;;;;;;5.14;78.74;96416.66;1749347;82;21101;-90
2021/01/04 09:27:25;;;;;;;18.27;11.97;;;;;;;5.48;78.87;96419.85;1757780;82;21266;-90
2021/01/04 09:29:57;;;;;;;17.32;11.05;;;;;;;5.77;78.08;96434.84;1757642;82;21651;-92
2021/01/04 09:32:35;;;;;;;13.55;9.03;;;;;;;5.94;78.00;96425.00;1757693;82;21104;-90
2021/01/04 09:35:01;;;;;;;13.80;8.55;;;;;;;6.34;78.51;96413.13;1757545;81;21254;-90
2021/01/04 09:37:28;;;;;;;17.00;8.75;;;;;;;6.61;77.66;96404.27;1757675;81;21289;-91
2021/01/04 09:40:08;;;;;;;14.40;8.13;;;;;;;6.74;77.57;96405.12;1757626;81;21336;-91
2021/01/04 09:42:37;;;;;;;9.93;6.25;;;;;;;6.78;76.92;96404.89;1757897;82;21125;-90
2021/01/04 09:45:12;;;;;;;10.25;6.00;;;;;;;6.85;77.06;96406.22;1757679;81;21515;-91
2021/01/04 09:47:57;;;;;;;12.05;6.75;;;;;;;6.97;76.63;96412.58;1757830;82;21119;-91
2021/01/04 09:50:32;;;;;;;12.07;7.12;;;;;;;7.02;76.34;96411.79;1779511;80;21171;-91
2021/01/04 09:53:08;;;;;;;11.30;7.37;;;;;;;7.09;76.34;96411.82;1792145;80;21484;-91
2021/01/04 09:55:39;;;;;;;11.83;7.70;;;;;;;7.20;75.75;96410.53;1792098;80;21127;-91
2021/01/04 09:58:06;;;;;;;11.70;7.53;;;;;;;7.29;76.06;96401.03;1792204;80;21152;-91
2021/01/04 10:00:38;;;;;;;10.40;7.58;;;;;;;7.47;75.97;96399.76;1792262;80;21654;-91
2021/01/04 10:03:22;;;;;;;12.30;7.37;;;;;;;7.54;75.59;96402.38;1792227;80;21487;-90
2021/01/04 10:05:51;;;;;;;12.45;8.23;;;;;;;7.57;74.62;96403.17;1792274;80;21265;-91
2021/01/04 10:08:26;;;;;;;14.07;8.93;;;;;;;7.56;74.63;96409.50;1792269;80;21478;-91
2021/01/04 10:11:04;;;;;;;11.73;7.83;;;;;;;7.73;74.90;96409.23;1792102;80;21649;-91
2021/01/04 10:13:37;;;;;;;10.18;6.53;;;;;;;7.88;74.33;96412.39;1792326;80;21249;-90
2021/01/04 10:16:10;;;;;;;12.55;7.92;;;;;;;7.88;74.02;96413.70;1792148;80;21270;-90
2021/01/04 10:19:15;;;;;;;15.65;9.55;;;;;;;7.89;73.00;96412.68;1792368;80;21289;-91
2021/01/04 10:21:48;;;;;;;16.32;10.10;;;;;;;7.73;72.80;96411.87;1642061;87;21167;-90
2021/01/04 10:24:20;;;;;;;12.95;7.58;;;;;;;7.69;72.82;96402.91;1745972;81;21163;-91
2021/01/04 10:26:50;;;;;;;13.35;8.30;;;;;;;7.76;72.36;96393.42;1761067;81;21119;-90
2021/01/04 10:29:21;;;;;;;;;;;;;;;7.65;71.52;96389.46;1763551;81;21186;-91
2021/01/04 10:31:51;;;;;;;15.27;8.47;;;;;;;7.62;72.00;96385.25;1761194;81;20380;-91
2021/01/04 10:34:21;;;;;;;14.30;8.38;;;;;;;7.60;70.57;96383.38;1761135;81;21155;-90
2021/01/04 10:37:04;;;;;;;12.95;7.97;;;;;;;7.23;69.40;96371.77;1761138;81;21181;-91
2021/01/04 10:39:35;;;;;;;13.40;9.05;;;;;;;6.97;69.79;96362.51;1761031;81;21527;-91
2021/01/04 10:42:14;;;;;;;11.18;7.80;;;;;;;6.83;70.37;96375.91;1761047;81;21507;-90
2021/01/04 10:44:41;;;;;;;10.65;7.45;;;;;;;6.79;70.01;96381.44;1760400;81;21167;-91
2021/01/04 10:47:30;;;;;;;12.10;8.40;;;;;;;6.71;70.32;96379.30;1760938;81;21154;-90
2021/01/04 10:50:14;;;;;;;15.50;10.13;;;;;;;6.63;70.45;96374.02;1772814;80;21164;-90
2021/01/04 10:52:45;;;;;;;14.73;9.85;;;;;;;6.70;71.11;96372.45;1792309;80;21136;-90
2021/01/04 10:55:23;;;;;;;15.10;10.08;;;;;;;6.84;71.30;96368.27;1789434;80;21152;-91
2021/01/04 10:57:55;;;;;;;15.50;9.50;;;;;;;6.97;71.32;96365.14;1792205;80;21080;-90
2021/01/04 11:00:30;;;;;;;16.10;10.35;;;;;;;7.04;70.85;96361.74;1792259;80;21285;-90
2021/01/04 11:03:16;;;;;;;14.30;9.83;;;;;;;7.05;71.05;96358.05;1792270;80;21515;-90
2021/01/04 11:05:48;;;;;;;18.27;9.85;;;;;;;7.23;71.81;96358.59;1792345;80;21124;-91
2021/01/04 11:08:27;;;;;;;12.65;8.40;;;;;;;7.47;71.54;96357.03;1792112;80;21258;-91
2021/01/04 11:11:08;;;;;;;14.93;9.43;;;;;;;7.61;71.08;96355.97;1792940;80;21167;-91
2021/01/04 11:13:36;;;;;;;15.70;8.70;;;;;;;7.66;70.48;96359.91;1793760;80;21127;-92
2021/01/04 11:16:19;;;;;;;12.15;8.33;;;;;;;7.70;70.49;96355.15;1795505;79;21147;-91
2021/01/04 11:18:57;;;;;;;14.07;9.63;;;;;;;7.68;69.73;96355.95;1795757;79;21152;-90
2021/01/04 11:21:44;;;;;;;15.32;9.85;;;;;;;7.62;70.08;96356.23;1795487;79;21254;-91
2021/01/04 11:24:12;;;;;;;17.17;9.78;;;;;;;7.71;70.18;96354.09;1795828;79;21124;-92
2021/01/04 11:26:44;;;;;;;16.50;9.60;;;;;;;7.94;70.99;96349.32;1795443;79;21115;-91
2021/01/04 11:29:12;;;;;;;16.97;9.45;;;;;;;8.17;70.51;96346.10;1795692;79;21115;-91
2021/01/04 11:31:39;;;;;;;13.78;8.63;;;;;;;8.18;69.31;96345.04;1795506;80;21134;-91
2021/01/04 11:34:07;;;;;;;14.80;8.33;;;;;;;8.20;69.56;96347.41;1795544;80;21206;-92
2021/01/04 11:36:34;;;;;;;14.63;9.45;;;;;;;8.32;70.03;96344.73;1795420;80;21134;-91
2021/01/04 11:39:01;;;;;;;14.50;8.35;;;;;;;8.43;68.96;96346.81;1795531;79;21143;-92
2021/01/04 11:41:28;;;;;;;12.50;8.38;;;;;;;8.45;69.08;96342.60;1795495;80;21645;-92
2021/01/04 11:43:56;;;;;;;14.45;9.13;;;;;;;8.47;68.04;96347.08;1795541;79;21225;-92
2021/01/04 11:46:24;;;;;;;12.37;7.75;;;;;;;8.44;68.45;96358.95;1795634;79;21127;-91
2021/01/04 11:48:51;;;;;;;10.95;7.22;;;;;;;8.53;68.58;96359.20;1795418;80;21268;-91
2021/01/04 11:51:20;;;;;;;12.63;7.67;;;;;;;8.69;68.99;96346.17;1795322;80;21285;-92
2021/01/04 11:53:50;;;;;;;12.28;8.13;;;;;;;8.80;68.62;96347.70;1795494;79;21143;-92
2021/01/04 11:56:19;;;;;;;11.90;7.93;;;;;;;8.89;68.51;96343.97;1795756;79;21595;-91
2021/01/04 11:58:47;;;;;;;18.52;11.45;;;;;;;8.93;68.15;96339.70;1795451;80;21155;-91
2021/01/04 12:01:17;;;;;;;18.40;10.55;;;;;;;8.91;67.86;96339.19;1795522;79;21135;-91
2021/01/04 12:03:44;;;;;;;15.08;9.20;;;;;;;8.89;68.11;96338.68;1795481;79;21269;-91
2021/01/04 12:06:13;;;;;;;24.15;15.48;;;;;;;8.87;67.09;96338.95;1795359;80;21309;-92
2021/01/04 12:08:40;;;;;;;23.92;16.32;;;;;;;8.71;67.16;96336.64;1795511;79;21128;-92
2021/01/04 12:11:07;;;;;;;26.25;17.67;;;;;;;8.32;66.56;96343.94;1794571;79;21171;-92
2021/01/04 12:13:35;;;;;;;27.52;17.40;;;;;;;8.07;67.37;96347.44;1792940;80;21163;-92
2021/01/04 12:16:02;;;;;;;31.25;19.87;;;;;;;8.13;67.98;96347.67;1792559;80;21136;-91
2021/01/04 12:18:29;;;;;;;28.35;18.75;;;;;;;8.09;68.07;96349.28;1792788;80;21142;-91
2021/01/04 12:20:56;;;;;;;29.75;18.90;;;;;;;7.82;67.82;96351.45;1792277;80;21130;-92
2021/01/04 12:23:24;;;;;;;28.32;20.40;;;;;;;7.65;68.26;96353.84;1792650;80;21297;-92
2021/01/04 12:25:51;;;;;;;30.65;21.17;;;;;;;7.38;68.56;96352.01;1792796;80;21155;-92
2021/01/04 12:28:18;;;;;;;28.65;20.75;;;;;;;7.16;69.15;96350.92;1792672;80;21116;-92
2021/01/04 12:30:46;;;;;;;31.35;20.55;;;;;;;7.05;69.54;96357.27;1792643;80;21155;-91
2021/01/04 12:33:13;;;;;;;33.08;21.10;;;;;;;6.84;69.78;96363.00;1792722;80;21146;-91